Time;durP1;ratioP1;P1;durP2;ratioP2;P2;SDS_P1;SDS_P2;PMS_P1;PMS_P2;Temp;Humidity;BMP_temperature;BMP_pressure;BME280_temperature;BME280_humidity;BME280_pressure;Samples;Min_cycle;Max_cycle;Signal;HPM_P1;HPM_P2
2023/09/21 00:00:16;;;;;;;5.07;3.70;;;14.30;99.90;;;;;;4965334;28;20248;-57
2023/09/21 00:02:46;;;;;;;4.40;3.17;;;14.30;99.90;;;;;;4966080;28;20200;-58
2023/09/21 00:05:13;;;;;;;4.70;3.70;;;14.30;99.90;;;;;;4966281;28;20444;-58
2023/09/21 00:07:39;;;;;;;4.17;3.57;;;14.30;99.90;;;;;;4964785;28;20433;-58
2023/09/21 00:10:07;;;;;;;6.23;2.90;;;14.30;99.90;;;;;;4962671;28;20472;-58
2023/09/21 00:12:38;;;;;;;5.17;3.30;;;14.30;99.90;;;;;;4964367;28;20269;-58
2023/09/21 00:15:07;;;;;;;5.30;3.10;;;14.30;99.90;;;;;;4965684;28;20456;-59
2023/09/21 00:17:37;;;;;;;4.17;2.93;;;14.30;99.90;;;;;;4966082;28;20428;-58
2023/09/21 00:20:21;;;;;;;7.03;2.90;;;14.30;99.90;;;;;;4965904;28;20967;-58
2023/09/21 00:22:47;;;;;;;3.77;3.27;;;14.30;99.90;;;;;;4965416;28;20433;-58
2023/09/21 00:25:15;;;;;;;3.80;2.90;;;14.30;99.90;;;;;;4965242;28;20432;-58
2023/09/21 00:27:41;;;;;;;5.30;3.33;;;14.30;99.90;;;;;;4964741;28;20276;-57
2023/09/21 00:30:07;;;;;;;3.90;2.90;;;14.30;99.90;;;;;;4965256;28;20913;-58
2023/09/21 00:32:38;;;;;;;3.70;3.30;;;14.30;99.90;;;;;;4965760;28;20194;-58
2023/09/21 00:35:06;;;;;;;3.60;2.80;;;14.40;99.90;;;;;;4979996;28;20806;-58
2023/09/21 00:37:32;;;;;;;6.27;3.20;;;14.30;99.90;;;;;;4966357;28;20432;-57
2023/09/21 00:39:58;;;;;;;5.90;3.23;;;14.30;99.90;;;;;;4964492;28;20441;-58
2023/09/21 00:42:23;;;;;;;4.00;3.10;;;14.40;99.90;;;;;;4961775;28;20182;-58
2023/09/21 00:44:51;;;;;;;4.90;3.40;;;14.40;99.90;;;;;;4961601;28;20229;-57
2023/09/21 00:47:17;;;;;;;3.50;3.07;;;14.40;99.90;;;;;;4964594;28;20185;-58
2023/09/21 00:49:42;;;;;;;3.60;3.30;;;14.40;99.90;;;;;;4964239;28;20515;-58
2023/09/21 00:52:11;;;;;;;8.13;3.77;;;14.30;99.90;;;;;;4964910;28;20846;-58
2023/09/21 00:54:40;;;;;;;4.40;4.00;;;14.30;99.90;;;;;;4963071;28;20217;-58
2023/09/21 00:57:08;;;;;;;7.37;3.40;;;14.30;99.90;;;;;;4977245;28;20430;-58
2023/09/21 00:59:39;;;;;;;4.70;3.30;;;14.20;99.90;;;;;;4965540;28;20931;-57
2023/09/21 01:02:05;;;;;;;6.23;3.50;;;14.20;99.90;;;;;;4959128;28;20437;-58
2023/09/21 01:04:30;;;;;;;3.50;3.20;;;14.10;99.90;;;;;;4965291;28;20453;-57
2023/09/21 01:06:56;;;;;;;4.60;3.23;;;14.20;99.90;;;;;;4965687;28;20449;-58
2023/09/21 01:09:22;;;;;;;6.07;3.50;;;14.20;99.90;;;;;;4963627;28;20194;-58
2023/09/21 01:11:48;;;;;;;7.47;3.67;;;14.20;99.90;;;;;;4963247;28;20286;-58
2023/09/21 01:14:14;;;;;;;5.93;3.60;;;14.20;99.90;;;;;;4963764;28;20543;-58
2023/09/21 01:16:40;;;;;;;18.13;4.07;;;14.20;99.90;;;;;;4966003;28;20429;-58
2023/09/21 01:19:05;;;;;;;7.63;4.00;;;14.10;99.90;;;;;;4963502;28;20209;-57
2023/09/21 01:21:40;;;;;;;3.70;3.30;;;14.10;99.90;;;;;;4980124;28;20224;-57
2023/09/21 01:24:13;;;;;;;7.20;4.07;;;14.10;99.90;;;;;;4964763;28;20202;-58
2023/09/21 01:26:38;;;;;;;4.17;3.30;;;14.10;99.90;;;;;;4963923;28;20495;-57
2023/09/21 01:29:04;;;;;;;6.17;4.00;;;14.10;99.90;;;;;;4962631;28;20445;-57
2023/09/21 01:31:30;;;;;;;6.67;4.20;;;14.00;99.90;;;;;;4966400;28;20296;-57
2023/09/21 01:33:58;;;;;;;4.77;3.97;;;14.00;99.90;;;;;;4979322;28;20201;-57
2023/09/21 01:36:24;;;;;;;5.40;4.30;;;14.00;99.90;;;;;;4963890;28;20304;-58
2023/09/21 01:38:50;;;;;;;18.00;4.33;;;14.00;99.90;;;;;;4963258;28;20532;-58
2023/09/21 01:41:18;;;;;;;6.77;4.17;;;14.00;99.90;;;;;;4963979;28;20204;-58
2023/09/21 01:43:44;;;;;;;4.50;3.70;;;14.00;99.90;;;;;;4961704;28;20472;-56
2023/09/21 01:46:10;;;;;;;4.83;3.70;;;14.00;99.90;;;;;;4963453;28;20441;-57
2023/09/21 01:48:36;;;;;;;6.10;4.57;;;14.00;99.90;;;;;;4961410;28;20628;-58
2023/09/21 01:51:02;;;;;;;7.73;4.73;;;14.00;99.90;;;;;;4960878;28;20202;-57
2023/09/21 01:53:28;;;;;;;7.40;3.90;;;14.00;99.90;;;;;;4964012;28;20527;-57
2023/09/21 01:55:54;;;;;;;5.63;4.40;;;14.00;99.90;;;;;;4964321;28;20244;-57
2023/09/21 01:58:23;;;;;;;5.50;3.90;;;14.00;99.90;;;;;;4964213;28;20177;-57
2023/09/21 02:00:50;;;;;;;4.30;3.70;;;14.00;99.90;;;;;;4964673;28;20186;-58
2023/09/21 02:03:31;;;;;;;7.73;3.80;;;14.00;99.90;;;;;;4967654;28;20496;-58
2023/09/21 02:05:59;;;;;;;5.00;3.87;;;14.00;99.90;;;;;;4962769;28;20449;-57
2023/09/21 02:08:25;;;;;;;8.13;4.33;;;14.00;99.90;;;;;;4963023;28;20456;-57
2023/09/21 02:10:50;;;;;;;8.13;3.90;;;14.00;99.90;;;;;;4963647;28;20473;-57
2023/09/21 02:13:16;;;;;;;6.27;4.03;;;14.00;99.90;;;;;;4963293;28;20445;-57
2023/09/21 02:15:43;;;;;;;5.10;4.17;;;14.00;99.90;;;;;;4963469;28;20581;-57
2023/09/21 02:18:10;;;;;;;6.47;4.30;;;14.00;99.90;;;;;;4963761;28;20536;-57
2023/09/21 02:20:41;;;;;;;4.93;4.10;;;14.00;99.90;;;;;;4962840;28;20520;-58
2023/09/21 02:23:07;;;;;;;6.93;3.73;;;14.00;99.90;;;;;;4962939;28;20476;-57
2023/09/21 02:25:34;;;;;;;6.40;4.23;;;14.00;99.90;;;;;;4960281;28;20437;-58
2023/09/21 02:28:04;;;;;;;6.70;4.10;;;14.00;99.90;;;;;;4962918;28;20300;-58
2023/09/21 02:30:32;;;;;;;11.77;4.33;;;14.00;99.90;;;;;;4961057;28;20483;-58
2023/09/21 02:32:59;;;;;;;6.30;4.57;;;14.00;99.90;;;;;;4964658;28;20441;-57
2023/09/21 02:35:27;;;;;;;8.20;4.03;;;14.00;99.90;;;;;;4967753;28;20452;-57
2023/09/21 02:37:55;;;;;;;6.40;4.60;;;14.00;99.90;;;;;;4962908;28;20421;-58
2023/09/21 02:40:22;;;;;;;5.77;4.30;;;14.10;99.90;;;;;;4962224;28;20443;-58
2023/09/21 02:42:53;;;;;;;7.37;4.70;;;14.00;99.90;;;;;;4960358;28;20885;-57
2023/09/21 02:45:23;;;;;;;5.80;4.30;;;14.10;99.90;;;;;;4962058;28;20492;-58
2023/09/21 02:47:51;;;;;;;5.57;4.77;;;14.10;99.90;;;;;;4962558;28;20429;-57
2023/09/21 02:50:27;;;;;;;6.17;4.30;;;14.10;99.90;;;;;;4964225;28;20564;-58
2023/09/21 02:53:12;;;;;;;9.03;4.27;;;14.10;99.90;;;;;;4963435;28;20433;-58
2023/09/21 02:55:39;;;;;;;5.60;4.30;;;14.10;99.90;;;;;;4962921;28;20528;-58
2023/09/21 02:58:12;;;;;;;6.37;4.00;;;14.10;99.90;;;;;;4976044;28;20437;-57
2023/09/21 03:00:45;;;;;;;9.73;4.87;;;14.10;99.90;;;;;;4961357;28;20888;-58
2023/09/21 03:03:15;;;;;;;5.53;4.47;;;14.10;99.90;;;;;;4963169;28;20487;-57
2023/09/21 03:05:45;;;;;;;5.50;4.33;;;14.00;99.90;;;;;;4962708;28;21224;-58
2023/09/21 03:08:13;;;;;;;5.87;4.63;;;14.00;99.90;;;;;;4962764;28;20433;-58
2023/09/21 03:10:47;;;;;;;6.77;4.47;;;14.00;99.90;;;;;;4963991;28;21193;-57
2023/09/21 03:13:18;;;;;;;9.83;4.60;;;14.00;99.90;;;;;;4964320;28;21250;-57
2023/09/21 03:15:45;;;;;;;7.40;4.43;;;14.00;99.90;;;;;;4960267;28;20477;-57
2023/09/21 03:18:11;;;;;;;6.30;4.20;;;14.00;99.90;;;;;;4961727;28;20520;-58
2023/09/21 03:20:37;;;;;;;5.20;4.30;;;14.00;99.90;;;;;;4961469;28;20913;-58
2023/09/21 03:23:09;;;;;;;5.60;4.30;;;14.00;99.90;;;;;;4959934;28;20197;-58
2023/09/21 03:25:42;;;;;;;5.83;4.53;;;14.00;99.90;;;;;;4966341;28;20444;-57
2023/09/21 03:28:10;;;;;;;8.97;5.27;;;14.00;99.90;;;;;;4968573;28;20589;-58
2023/09/21 03:30:40;;;;;;;8.03;4.60;;;14.00;99.90;;;;;;4968817;28;20883;-58
2023/09/21 03:33:06;;;;;;;10.03;4.60;;;14.00;99.90;;;;;;4966726;28;20471;-58
2023/09/21 03:35:32;;;;;;;5.57;4.37;;;14.00;99.90;;;;;;4972339;28;20472;-57
2023/09/21 03:37:58;;;;;;;6.47;4.60;;;14.00;99.90;;;;;;4971384;28;20959;-57
2023/09/21 03:40:30;;;;;;;8.77;4.10;;;14.00;99.90;;;;;;4969009;28;20440;-58
2023/09/21 03:42:56;;;;;;;5.37;3.90;;;14.10;99.90;;;;;;4968715;28;20436;-57
2023/09/21 03:45:25;;;;;;;7.00;4.47;;;14.10;99.90;;;;;;4968925;28;20688;-58
2023/09/21 03:47:54;;;;;;;5.17;4.00;;;14.10;99.90;;;;;;4967994;28;20905;-57
2023/09/21 03:50:24;;;;;;;10.00;4.33;;;14.10;99.90;;;;;;4970331;28;20468;-58
2023/09/21 03:52:50;;;;;;;4.60;4.03;;;14.10;99.90;;;;;;4972636;28;20421;-59
2023/09/21 03:55:16;;;;;;;7.07;4.40;;;14.10;99.90;;;;;;4962816;28;20448;-58
2023/09/21 03:57:46;;;;;;;14.10;4.50;;;14.10;99.90;;;;;;4976775;28;20433;-58
2023/09/21 04:02:54;;;;;;;8.17;4.70;;;14.10;99.90;;;;;;4967126;28;20954;-59
2023/09/21 04:05:23;;;;;;;5.50;4.20;;;14.00;99.90;;;;;;4970840;28;20429;-59
2023/09/21 04:07:49;;;;;;;5.83;4.53;;;14.00;99.90;;;;;;4969484;28;21024;-57
2023/09/21 04:10:15;;;;;;;4.60;3.90;;;14.00;99.90;;;;;;4969032;28;20516;-57
2023/09/21 04:12:47;;;;;;;6.67;4.10;;;14.00;99.90;;;;;;4970255;28;20260;-58
2023/09/21 04:15:13;;;;;;;4.10;3.70;;;14.00;99.90;;;;;;4972293;28;20456;-58
2023/09/21 04:17:39;;;;;;;8.10;4.03;;;14.00;99.90;;;;;;4967959;28;20433;-58
2023/09/21 04:20:09;;;;;;;5.63;4.47;;;14.00;99.90;;;;;;4969986;28;20186;-58
2023/09/21 04:22:35;;;;;;;9.30;4.33;;;14.00;99.90;;;;;;4961264;28;20437;-58
2023/09/21 04:25:07;;;;;;;6.27;4.20;;;14.00;99.90;;;;;;4967492;28;20464;-59
2023/09/21 04:27:43;;;;;;;7.40;4.47;;;14.00;99.90;;;;;;4967360;28;20208;-58
2023/09/21 04:30:14;;;;;;;11.83;4.27;;;14.00;99.90;;;;;;4967187;28;20511;-58
2023/09/21 04:32:40;;;;;;;4.37;3.97;;;14.00;99.90;;;;;;4967443;28;20453;-58
2023/09/21 04:35:06;;;;;;;5.10;3.97;;;14.10;99.90;;;;;;4970421;28;20456;-60
2023/09/21 04:37:38;;;;;;;9.73;4.23;;;14.00;99.90;;;;;;4964652;28;20849;-61
2023/09/21 04:40:05;;;;;;;5.10;4.20;;;14.10;99.90;;;;;;4965928;28;20459;-59
2023/09/21 04:42:32;;;;;;;5.03;3.97;;;14.10;99.90;;;;;;4968645;28;20878;-58
2023/09/21 04:44:58;;;;;;;5.23;3.93;;;14.00;99.90;;;;;;4967638;28;20460;-58
2023/09/21 04:47:24;;;;;;;8.33;4.40;;;14.00;99.90;;;;;;4968908;28;20523;-60
2023/09/21 04:49:53;;;;;;;7.10;4.80;;;14.00;99.90;;;;;;4966132;28;20559;-58
2023/09/21 04:52:20;;;;;;;8.80;4.60;;;14.00;99.90;;;;;;4964421;28;20178;-58
2023/09/21 04:54:49;;;;;;;5.60;4.00;;;14.00;99.90;;;;;;4965071;28;20545;-59
2023/09/21 04:57:15;;;;;;;5.83;4.40;;;14.00;99.90;;;;;;4969490;28;20429;-59
2023/09/21 04:59:40;;;;;;;7.80;4.20;;;14.00;99.90;;;;;;4970474;28;20429;-58
2023/09/21 05:02:07;;;;;;;6.90;4.43;;;14.00;99.90;;;;;;4967499;28;20270;-59
2023/09/21 05:04:32;;;;;;;6.13;4.40;;;14.00;99.90;;;;;;4969914;28;20222;-58
2023/09/21 05:06:59;;;;;;;8.33;4.57;;;14.00;99.90;;;;;;4970919;28;20453;-58
2023/09/21 05:09:24;;;;;;;5.03;4.10;;;14.00;99.90;;;;;;4967611;28;20872;-59
2023/09/21 05:11:50;;;;;;;5.47;4.73;;;14.00;99.90;;;;;;4967162;28;20436;-59
2023/09/21 05:14:17;;;;;;;5.30;4.63;;;14.00;99.90;;;;;;4962791;28;20198;-58
2023/09/21 05:16:43;;;;;;;7.67;4.60;;;14.00;99.90;;;;;;4968644;28;20536;-59
2023/09/21 05:19:12;;;;;;;5.60;4.43;;;14.00;99.90;;;;;;4961829;28;20507;-58
2023/09/21 05:21:38;;;;;;;5.23;4.40;;;14.00;99.90;;;;;;4968642;28;20711;-58
2023/09/21 05:24:04;;;;;;;6.53;4.10;;;14.00;99.90;;;;;;4968396;28;20453;-58
2023/09/21 05:26:30;;;;;;;7.10;4.90;;;14.00;99.90;;;;;;4970105;28;20198;-58
2023/09/21 05:28:56;;;;;;;5.63;4.33;;;14.00;99.90;;;;;;4968362;28;20575;-60
2023/09/21 05:31:21;;;;;;;5.33;4.40;;;14.00;99.90;;;;;;4970943;28;20209;-59
2023/09/21 05:33:47;;;;;;;6.80;4.40;;;14.00;99.90;;;;;;4970613;28;20272;-58
2023/09/21 05:36:12;;;;;;;8.40;4.50;;;14.00;99.90;;;;;;4968051;28;20569;-59
2023/09/21 05:38:38;;;;;;;10.60;5.10;;;14.00;99.90;;;;;;4970556;28;20792;-58
2023/09/21 05:41:04;;;;;;;7.70;5.00;;;14.00;99.90;;;;;;4967855;28;20192;-59
2023/09/21 05:43:32;;;;;;;7.73;3.97;;;14.00;99.90;;;;;;4968668;28;20281;-60
2023/09/21 05:45:58;;;;;;;7.13;4.37;;;14.00;99.90;;;;;;4963730;28;20178;-60
2023/09/21 05:48:24;;;;;;;5.30;4.23;;;14.00;99.90;;;;;;4969746;28;20421;-58
2023/09/21 05:50:49;;;;;;;22.43;4.80;;;14.00;99.90;;;;;;4967888;28;20205;-61
2023/09/21 05:53:16;;;;;;;7.07;4.07;;;14.00;99.90;;;;;;4966035;28;20281;-58
2023/09/21 05:55:44;;;;;;;5.40;4.60;;;14.10;99.90;;;;;;4968740;28;20181;-58
2023/09/21 05:58:10;;;;;;;6.00;4.23;;;14.10;99.90;;;;;;4968185;28;20499;-58
2023/09/21 06:00:36;;;;;;;7.53;4.50;;;14.10;99.90;;;;;;4967776;28;20437;-59
2023/09/21 06:03:01;;;;;;;7.20;4.40;;;14.20;99.90;;;;;;4967302;28;20240;-58
2023/09/21 06:05:28;;;;;;;8.77;4.73;;;14.20;99.90;;;;;;4970025;28;20265;-59
2023/09/21 06:07:55;;;;;;;11.53;4.80;;;14.20;99.90;;;;;;4970520;28;20181;-58
2023/09/21 06:10:25;;;;;;;8.87;4.40;;;14.20;99.90;;;;;;4969131;28;20468;-58
2023/09/21 06:12:51;;;;;;;9.67;4.60;;;14.20;99.90;;;;;;4966323;28;21214;-58
2023/09/21 06:15:18;;;;;;;8.20;4.50;;;14.20;99.90;;;;;;4963099;28;20465;-58
2023/09/21 06:17:43;;;;;;;6.50;4.00;;;14.20;99.90;;;;;;4968773;28;20177;-59
2023/09/21 06:20:11;;;;;;;9.70;4.53;;;14.20;99.90;;;;;;4967869;28;20515;-59
2023/09/21 06:22:40;;;;;;;9.13;5.30;;;14.20;99.90;;;;;;4967015;28;20178;-58
2023/09/21 06:25:06;;;;;;;11.13;4.40;;;14.20;99.90;;;;;;4962984;28;21022;-59
2023/09/21 06:27:37;;;;;;;10.00;4.70;;;14.20;99.90;;;;;;4963458;28;20426;-58
2023/09/21 06:30:03;;;;;;;7.60;5.03;;;14.20;99.90;;;;;;4966913;28;20472;-58
2023/09/21 06:32:29;;;;;;;5.40;4.33;;;14.20;99.90;;;;;;4969838;28;20492;-58
2023/09/21 06:34:55;;;;;;;15.23;5.40;;;14.20;99.90;;;;;;4968295;28;20448;-59
2023/09/21 06:37:22;;;;;;;14.53;5.37;;;14.20;99.90;;;;;;4968701;28;20971;-58
2023/09/21 06:39:48;;;;;;;16.90;5.37;;;14.30;99.90;;;;;;4979482;28;20493;-59
2023/09/21 06:42:15;;;;;;;134.30;12.10;;;14.30;99.90;;;;;;4967191;28;21076;-58
2023/09/21 06:44:41;;;;;;;16.20;5.67;;;14.40;99.90;;;;;;4964856;28;20289;-59
2023/09/21 06:47:07;;;;;;;5.27;4.40;;;14.50;99.90;;;;;;4966576;28;20441;-58
2023/09/21 06:49:35;;;;;;;9.60;4.23;;;14.50;99.90;;;;;;4963662;28;20828;-59
2023/09/21 06:52:02;;;;;;;6.30;4.07;;;14.60;99.90;;;;;;4961894;28;20178;-58
2023/09/21 06:54:29;;;;;;;11.73;5.30;;;14.70;99.90;;;;;;4964452;28;20452;-58
2023/09/21 06:57:03;;;;;;;5.90;4.27;;;14.70;99.90;;;;;;4967165;28;20425;-59
2023/09/21 06:59:29;;;;;;;7.70;4.70;;;14.70;99.90;;;;;;4967141;28;20433;-61
2023/09/21 07:01:55;;;;;;;7.90;4.63;;;14.80;99.90;;;;;;4965374;28;20456;-58
2023/09/21 07:04:21;;;;;;;4.60;3.97;;;14.80;99.90;;;;;;4967214;28;20971;-58
2023/09/21 07:06:46;;;;;;;12.87;5.00;;;14.80;99.90;;;;;;4967623;28;20244;-58
2023/09/21 07:09:13;;;;;;;7.77;4.20;;;14.80;99.90;;;;;;4966049;28;20182;-59
2023/09/21 07:11:39;;;;;;;16.80;5.30;;;14.80;99.90;;;;;;4965794;28;20204;-60
2023/09/21 07:14:05;;;;;;;26.77;7.50;;;14.90;99.90;;;;;;4967004;28;20473;-59
2023/09/21 07:16:31;;;;;;;15.30;5.40;;;14.90;99.90;;;;;;4964968;28;20437;-58
2023/09/21 07:18:57;;;;;;;13.53;6.20;;;15.00;99.90;;;;;;4968610;28;20448;-57
2023/09/21 07:21:23;;;;;;;8.37;5.77;;;15.10;99.90;;;;;;4968592;28;20188;-58
2023/09/21 07:23:49;;;;;;;15.20;6.60;;;15.10;99.90;;;;;;4968959;28;20786;-59
2023/09/21 07:26:15;;;;;;;16.57;5.90;;;15.20;99.90;;;;;;4959694;28;21039;-59
2023/09/21 07:28:40;;;;;;;5.17;4.37;;;15.20;99.90;;;;;;4964963;28;20433;-59
2023/09/21 07:31:08;;;;;;;4.30;3.33;;;15.30;99.90;;;;;;4967333;28;20206;-58
2023/09/21 07:33:35;;;;;;;9.10;4.60;;;15.30;99.90;;;;;;4969296;28;20202;-59
2023/09/21 07:36:02;;;;;;;12.07;4.43;;;15.40;99.90;;;;;;4964577;28;20432;-58
2023/09/21 07:38:28;;;;;;;11.43;4.30;;;15.40;99.90;;;;;;4967637;28;20512;-59
2023/09/21 07:40:54;;;;;;;6.53;4.60;;;15.50;99.90;;;;;;4968261;28;20521;-59
2023/09/21 07:43:19;;;;;;;7.83;4.47;;;15.60;99.90;;;;;;4966034;28;20197;-58
2023/09/21 07:45:49;;;;;;;6.43;4.03;;;15.60;99.90;;;;;;4962626;28;20436;-59
2023/09/21 07:48:16;;;;;;;4.70;3.23;;;15.70;99.90;;;;;;4967408;28;20180;-59
2023/09/21 07:50:42;;;;;;;6.07;3.67;;;15.80;99.90;;;;;;4968786;28;20550;-58
2023/09/21 07:53:08;;;;;;;5.50;3.50;;;15.90;99.90;;;;;;4967341;28;20456;-58
2023/09/21 07:55:34;;;;;;;10.57;4.43;;;15.90;99.90;;;;;;4968277;28;20425;-58
2023/09/21 07:58:00;;;;;;;7.50;4.20;;;16.00;99.90;;;;;;4969223;28;20523;-59
2023/09/21 08:00:25;;;;;;;6.13;3.60;;;16.10;99.90;;;;;;4965478;28;20260;-59
2023/09/21 08:02:53;;;;;;;5.20;3.60;;;16.10;99.90;;;;;;4957755;28;20684;-59
2023/09/21 08:05:18;;;;;;;4.43;3.70;;;16.10;99.90;;;;;;4969461;28;20185;-58
2023/09/21 08:07:45;;;;;;;5.30;4.03;;;16.20;99.90;;;;;;4967166;28;20433;-59
2023/09/21 08:10:10;;;;;;;6.60;4.03;;;16.30;99.90;;;;;;4966589;28;20221;-58
2023/09/21 08:12:40;;;;;;;4.63;3.77;;;16.30;99.90;;;;;;4968728;28;20433;-59
2023/09/21 08:15:06;;;;;;;9.40;4.13;;;16.40;99.90;;;;;;4965219;28;20197;-59
2023/09/21 08:17:33;;;;;;;12.30;4.10;;;16.50;99.90;;;;;;4961871;28;20433;-58
2023/09/21 08:19:59;;;;;;;5.03;3.40;;;16.60;99.90;;;;;;4970361;28;20464;-58
2023/09/21 08:22:27;;;;;;;4.03;3.30;;;16.70;99.90;;;;;;4973083;28;20417;-58
2023/09/21 08:24:53;;;;;;;5.93;4.40;;;16.80;99.90;;;;;;4970408;28;20544;-59
2023/09/21 08:27:19;;;;;;;8.00;4.80;;;16.90;99.90;;;;;;4969256;28;20540;-58
2023/09/21 08:29:45;;;;;;;9.17;5.30;;;17.00;99.90;;;;;;4967694;28;20179;-59
2023/09/21 08:32:10;;;;;;;5.57;4.73;;;17.10;99.90;;;;;;4969945;28;20204;-58
2023/09/21 08:34:36;;;;;;;5.67;4.47;;;17.20;99.90;;;;;;4968491;28;20685;-58
2023/09/21 08:37:02;;;;;;;7.47;3.97;;;17.40;99.90;;;;;;4970449;28;20376;-59
2023/09/21 08:39:28;;;;;;;5.80;4.20;;;17.50;99.90;;;;;;4969383;28;20182;-58
2023/09/21 08:41:54;;;;;;;16.13;4.77;;;17.60;99.90;;;;;;4969764;28;21070;-60
2023/09/21 08:44:20;;;;;;;9.23;4.60;;;17.70;99.90;;;;;;4968524;28;20213;-59
2023/09/21 08:46:50;;;;;;;6.63;4.73;;;17.80;99.90;;;;;;4985017;28;20657;-59
2023/09/21 08:49:18;;;;;;;9.93;4.47;;;18.00;99.90;;;;;;4964756;28;20433;-59
2023/09/21 08:51:44;;;;;;;8.50;4.50;;;18.00;99.90;;;;;;4965291;28;20468;-59
2023/09/21 08:54:14;;;;;;;7.63;4.20;;;18.20;99.90;;;;;;4967989;28;20457;-59
2023/09/21 08:56:42;;;;;;;5.80;3.80;;;18.20;99.90;;;;;;4971852;28;20944;-59
2023/09/21 08:59:08;;;;;;;5.90;3.50;;;18.30;99.90;;;;;;4964433;28;20439;-59
2023/09/21 09:01:35;;;;;;;4.47;2.90;;;18.30;99.90;;;;;;4967348;28;20441;-59
2023/09/21 09:04:00;;;;;;;4.97;3.63;;;18.40;99.90;;;;;;4963143;28;20481;-61
2023/09/21 09:06:29;;;;;;;8.97;3.17;;;18.40;99.90;;;;;;4971602;28;21233;-59
2023/09/21 09:08:56;;;;;;;6.40;3.60;;;18.40;99.90;;;;;;4967783;28;20187;-60
2023/09/21 09:11:38;;;;;;;4.87;3.33;;;18.40;99.90;;;;;;4971159;28;20472;-59
2023/09/21 09:14:10;;;;;;;3.83;3.50;;;18.60;99.90;;;;;;4968948;28;20891;-59
2023/09/21 09:16:36;;;;;;;6.03;3.30;;;18.70;99.90;;;;;;4967935;28;20425;-60
2023/09/21 09:19:05;;;;;;;5.80;3.60;;;19.00;99.90;;;;;;4967581;28;20440;-59
2023/09/21 09:21:31;;;;;;;5.23;3.80;;;19.20;99.90;;;;;;4969338;28;20479;-59
2023/09/21 09:23:56;;;;;;;4.00;2.57;;;19.40;99.90;;;;;;4964341;28;20527;-59
2023/09/21 09:26:22;;;;;;;5.37;3.40;;;19.60;99.90;;;;;;4966339;28;20719;-58
2023/09/21 09:28:48;;;;;;;4.43;3.43;;;19.80;99.50;;;;;;4968386;28;20228;-58
2023/09/21 09:31:18;;;;;;;5.90;3.97;;;19.90;96.30;;;;;;4969299;28;20263;-58
2023/09/21 09:33:49;;;;;;;9.53;3.70;;;20.10;95.80;;;;;;4970073;28;20715;-58
2023/09/21 09:36:15;;;;;;;8.43;3.00;;;20.20;93.80;;;;;;4959185;28;20462;-58
2023/09/21 09:38:42;;;;;;;8.13;3.50;;;20.40;94.40;;;;;;4970783;28;20840;-58
2023/09/21 09:41:12;;;;;;;5.57;2.90;;;20.60;92.10;;;;;;4970223;28;20268;-59
2023/09/21 09:43:39;;;;;;;5.53;3.50;;;20.80;90.60;;;;;;4970035;28;20998;-58
2023/09/21 09:46:08;;;;;;;4.37;3.10;;;20.80;90.40;;;;;;4968026;28;20891;-58
2023/09/21 09:48:37;;;;;;;3.13;2.83;;;20.90;89.50;;;;;;4958880;28;20452;-57
2023/09/21 09:51:06;;;;;;;4.47;2.93;;;20.90;87.00;;;;;;4965370;28;20476;-58
2023/09/21 09:53:34;;;;;;;3.90;3.50;;;21.00;90.40;;;;;;4968906;28;20453;-59
2023/09/21 09:56:09;;;;;;;4.20;3.00;;;21.10;89.10;;;;;;4969060;28;20433;-59
2023/09/21 09:58:42;;;;;;;3.20;2.70;;;21.20;87.80;;;;;;4970164;28;21247;-58
2023/09/21 10:01:12;;;;;;;3.67;2.33;;;21.30;84.90;;;;;;4964115;28;20432;-58
2023/09/21 10:03:39;;;;;;;5.50;2.17;;;21.50;83.90;;;;;;4966265;28;20487;-59
2023/09/21 10:06:08;;;;;;;3.67;2.20;;;21.60;78.40;;;;;;4962746;28;20445;-58
2023/09/21 10:08:38;;;;;;;2.70;2.43;;;21.70;77.40;;;;;;4959965;28;20433;-58
2023/09/21 10:11:06;;;;;;;4.30;2.60;;;21.90;73.80;;;;;;4968557;28;20449;-58
2023/09/21 10:13:35;;;;;;;3.90;2.57;;;22.00;69.80;;;;;;4970188;28;20448;-58
2023/09/21 10:16:05;;;;;;;5.30;2.63;;;22.10;70.40;;;;;;4969151;28;20428;-58
2023/09/21 10:18:35;;;;;;;3.80;2.47;;;22.30;68.90;;;;;;4967846;28;20491;-58
2023/09/21 10:21:13;;;;;;;2.70;1.90;;;22.50;69.90;;;;;;4968131;28;20548;-57
2023/09/21 10:24:04;;;;;;;14.60;2.97;;;22.60;65.00;;;;;;4966895;28;20457;-58
2023/09/21 10:26:33;;;;;;;4.07;2.30;;;22.80;63.30;;;;;;4968780;28;20491;-58
2023/09/21 10:29:03;;;;;;;7.60;3.10;;;22.90;62.50;;;;;;4965676;28;20428;-58
2023/09/21 10:31:31;;;;;;;3.63;2.30;;;23.00;60.30;;;;;;4965212;28;20464;-58
2023/09/21 10:33:56;;;;;;;3.33;2.87;;;23.00;60.00;;;;;;4961941;28;20444;-58
2023/09/21 10:36:22;;;;;;;2.87;2.43;;;23.00;60.80;;;;;;4964441;28;21016;-58
2023/09/21 10:39:05;;;;;;;2.90;2.10;;;23.00;60.10;;;;;;4967668;28;20174;-59
2023/09/21 10:41:35;;;;;;;2.53;2.33;;;23.10;59.80;;;;;;4964876;28;20220;-58
2023/09/21 10:44:02;;;;;;;2.60;1.90;;;23.20;59.00;;;;;;4962537;28;20457;-58
2023/09/21 10:46:31;;;;;;;2.30;2.10;;;23.20;58.60;;;;;;4966556;28;20440;-58
2023/09/21 10:49:03;;;;;;;6.27;2.00;;;23.10;59.10;;;;;;4968961;28;21001;-57
2023/09/21 10:51:29;;;;;;;5.33;2.07;;;23.20;59.00;;;;;;4962494;28;20482;-58
2023/09/21 10:53:58;;;;;;;2.33;1.70;;;23.20;57.50;;;;;;4968545;28;20446;-58
2023/09/21 10:56:25;;;;;;;3.70;2.40;;;23.30;57.40;;;;;;4967270;28;20473;-58
2023/09/21 10:58:50;;;;;;;2.40;1.87;;;23.40;58.10;;;;;;4960648;28;20441;-58
2023/09/21 11:01:18;;;;;;;2.47;1.60;;;23.70;57.00;;;;;;4964781;28;20441;-58
2023/09/21 11:03:47;;;;;;;8.03;1.70;;;23.90;55.90;;;;;;4969093;28;20208;-58
2023/09/21 11:06:16;;;;;;;2.63;2.27;;;24.00;55.70;;;;;;4966986;28;20519;-58
2023/09/21 11:08:45;;;;;;;2.13;1.60;;;24.10;54.50;;;;;;4960029;28;20488;-58
2023/09/21 11:11:12;;;;;;;3.03;2.07;;;24.10;55.60;;;;;;4967909;28;20461;-58
2023/09/21 11:13:41;;;;;;;2.00;1.70;;;24.20;53.80;;;;;;4965509;28;20449;-58
2023/09/21 11:16:09;;;;;;;2.70;1.73;;;24.30;55.00;;;;;;4966597;28;20182;-59
2023/09/21 11:18:35;;;;;;;3.17;2.23;;;24.40;55.20;;;;;;4967401;28;20436;-58
2023/09/21 11:21:03;;;;;;;2.30;2.10;;;24.70;54.80;;;;;;4968358;28;20432;-58
2023/09/21 11:23:31;;;;;;;1.90;1.70;;;24.70;53.50;;;;;;4960155;28;20539;-58
2023/09/21 11:25:59;;;;;;;2.03;1.67;;;24.80;53.30;;;;;;4962751;28;20440;-58
2023/09/21 11:28:25;;;;;;;6.00;2.10;;;24.90;52.30;;;;;;4966073;28;20448;-58
2023/09/21 11:30:51;;;;;;;2.87;2.20;;;24.90;52.50;;;;;;4967293;28;20471;-58
2023/09/21 11:33:19;;;;;;;2.50;2.07;;;24.90;51.80;;;;;;4969229;28;20822;-58
2023/09/21 11:35:45;;;;;;;2.17;1.93;;;25.00;52.10;;;;;;4963582;28;20862;-59
2023/09/21 11:38:12;;;;;;;2.60;1.90;;;25.10;51.00;;;;;;4968311;28;20437;-58
2023/09/21 11:40:38;;;;;;;2.27;2.07;;;25.20;51.60;;;;;;4968469;28;20329;-58
2023/09/21 11:43:04;;;;;;;2.63;2.07;;;25.40;51.80;;;;;;4962882;28;20428;-58
2023/09/21 11:45:34;;;;;;;3.43;1.70;;;25.50;50.20;;;;;;4963270;28;20860;-58
2023/09/21 11:48:00;;;;;;;5.00;2.27;;;25.60;50.80;;;;;;4968248;28;20571;-60
2023/09/21 11:50:32;;;;;;;6.03;2.00;;;25.80;50.50;;;;;;4972577;28;20562;-57
2023/09/21 11:52:58;;;;;;;4.50;2.07;;;25.90;50.90;;;;;;4971252;28;20178;-59
2023/09/21 11:55:28;;;;;;;3.57;1.87;;;26.00;51.20;;;;;;4970948;28;20439;-58
2023/09/21 11:58:13;;;;;;;2.90;1.67;;;26.00;49.40;;;;;;4971092;28;20173;-59
2023/09/21 12:00:44;;;;;;;2.77;2.10;;;25.90;49.80;;;;;;4970670;28;20464;-59
2023/09/21 12:03:16;;;;;;;3.10;2.00;;;25.90;49.50;;;;;;4969978;28;20440;-59
2023/09/21 12:05:44;;;;;;;5.20;2.40;;;25.60;48.60;;;;;;4963874;28;20424;-59
2023/09/21 12:08:14;;;;;;;4.10;1.80;;;25.40;49.30;;;;;;4970108;28;20464;-58
2023/09/21 12:10:48;;;;;;;4.53;2.07;;;25.10;49.10;;;;;;4967506;28;20568;-59
2023/09/21 12:13:14;;;;;;;4.80;1.60;;;24.80;49.60;;;;;;4968454;28;21131;-60
2023/09/21 12:15:41;;;;;;;6.90;2.20;;;24.60;50.50;;;;;;4961781;28;20439;-59
2023/09/21 12:18:07;;;;;;;2.40;1.80;;;24.40;49.80;;;;;;4966072;28;20813;-59
2023/09/21 12:20:34;;;;;;;3.70;1.70;;;24.10;49.20;;;;;;4971810;28;20456;-59
2023/09/21 12:23:02;;;;;;;2.50;1.97;;;24.00;50.00;;;;;;4965946;28;20907;-59
2023/09/21 12:25:27;;;;;;;5.17;2.17;;;23.90;50.90;;;;;;4964265;28;20468;-59
2023/09/21 12:27:53;;;;;;;3.30;2.07;;;23.90;51.30;;;;;;4969605;28;20457;-60
2023/09/21 12:30:20;;;;;;;7.23;2.57;;;23.80;52.20;;;;;;4970839;28;20691;-58
2023/09/21 12:32:46;;;;;;;4.73;2.20;;;23.80;51.80;;;;;;4965819;28;20186;-58
2023/09/21 12:35:12;;;;;;;3.93;2.20;;;23.90;52.80;;;;;;4963462;28;20515;-59
2023/09/21 12:37:39;;;;;;;2.63;2.17;;;23.90;52.50;;;;;;4969442;28;20170;-60
2023/09/21 12:40:11;;;;;;;4.00;2.60;;;24.00;52.00;;;;;;4970017;28;20652;-59
2023/09/21 12:42:41;;;;;;;4.50;2.70;;;24.00;51.60;;;;;;4966726;28;20445;-58
2023/09/21 12:45:08;;;;;;;7.97;2.57;;;23.90;52.30;;;;;;4971327;28;20455;-58
2023/09/21 12:47:34;;;;;;;4.67;2.60;;;23.90;52.70;;;;;;4971785;28;20483;-58
2023/09/21 12:50:00;;;;;;;4.30;1.90;;;23.90;52.70;;;;;;4964488;28;20430;-59